createdAt,value
2019-04-11T00:00:55.754Z,8.88
2019-04-11T00:01:54.397Z,8.94
2019-04-11T00:02:55.488Z,8.81
2019-04-11T00:03:54.225Z,8.88
2019-04-11T00:04:54.925Z,8.88
2019-04-11T00:05:55.195Z,8.88
2019-04-11T00:06:54.256Z,8.88
2019-04-11T00:07:54.540Z,8.88
2019-04-11T00:08:54.549Z,8.88
2019-04-11T00:09:54.908Z,8.88
2019-04-11T00:10:55.664Z,8.81
2019-04-11T00:11:54.681Z,8.88
2019-04-11T00:12:55.076Z,8.88
2019-04-11T00:13:54.173Z,8.81
2019-04-11T00:14:54.167Z,8.81
2019-04-11T00:15:55.337Z,8.81
2019-04-11T00:16:55.604Z,8.69
2019-04-11T00:17:54.806Z,8.75
2019-04-11T00:18:55.039Z,8.69
2019-04-11T00:19:54.142Z,8.69
2019-04-11T00:20:54.189Z,8.69
2019-04-11T00:21:55.479Z,8.69
2019-04-11T00:22:54.432Z,8.69
2019-04-11T00:23:54.918Z,8.69
2019-04-11T00:24:55.576Z,8.69
2019-04-11T00:25:54.191Z,8.75
2019-04-11T00:26:55.179Z,8.69
2019-04-11T00:27:54.852Z,8.75
2019-04-11T00:28:54.430Z,8.75
2019-04-11T00:29:54.172Z,8.75
2019-04-11T00:30:54.988Z,8.75
2019-04-11T00:31:55.119Z,8.69
2019-04-11T00:32:54.180Z,8.63
2019-04-11T00:33:56.395Z,8.56
2019-04-11T00:34:55.551Z,8.63
2019-04-11T00:35:54.190Z,8.56
2019-04-11T00:36:55.141Z,8.56
2019-04-11T00:37:54.163Z,8.63
2019-04-11T00:38:55.414Z,8.63
2019-04-11T00:39:54.394Z,8.63
2019-04-11T00:40:54.929Z,8.63
2019-04-11T00:41:54.666Z,8.63
2019-04-11T00:42:54.970Z,8.56
2019-04-11T00:43:54.908Z,8.56
2019-04-11T00:44:55.198Z,8.56
2019-04-11T00:45:54.437Z,8.56
2019-04-11T00:46:54.195Z,8.56
2019-04-11T00:47:55.467Z,8.5
2019-04-11T00:48:55.912Z,8.5
2019-04-11T00:49:54.972Z,8.56
2019-04-11T00:50:54.180Z,8.56
2019-04-11T00:51:54.250Z,8.56
2019-04-11T00:52:54.210Z,8.63
2019-04-11T00:53:54.385Z,8.63
2019-04-11T00:54:55.558Z,8.63
2019-04-11T00:55:54.170Z,8.63
2019-04-11T00:56:54.979Z,8.69
2019-04-11T00:57:55.271Z,8.63
2019-04-11T00:58:54.463Z,8.63
2019-04-11T00:59:54.580Z,8.63
2019-04-11T01:00:54.105Z,8.63
2019-04-11T01:01:54.294Z,8.63
2019-04-11T01:02:54.205Z,8.63
2019-04-11T01:03:56.079Z,8.63
2019-04-11T01:04:54.175Z,8.5
2019-04-11T01:05:58.432Z,8.44
2019-04-11T01:06:54.648Z,8.44
2019-04-11T01:07:55.394Z,8.44
2019-04-11T01:08:54.196Z,8.44
2019-04-11T01:09:55.062Z,8.38
2019-04-11T01:10:55.380Z,8.31
2019-04-11T01:11:54.573Z,8.19
2019-04-11T01:12:54.278Z,8.19
2019-04-11T01:13:55.991Z,8.25
2019-04-11T01:14:55.548Z,8.25
2019-04-11T01:15:54.668Z,8.31
2019-04-11T01:16:54.119Z,8.31
2019-04-11T01:17:54.127Z,8.38
2019-04-11T01:18:55.426Z,8.38
2019-04-11T01:19:55.572Z,8.38
2019-04-11T01:20:54.129Z,8.38
2019-04-11T01:21:55.234Z,8.38
2019-04-11T01:22:54.470Z,8.38
2019-04-11T01:23:55.148Z,8.31
2019-04-11T01:24:54.085Z,8.31
2019-04-11T01:25:55.186Z,8.31
2019-04-11T01:26:55.449Z,8.25
2019-04-11T01:27:54.569Z,8.25
2019-04-11T01:28:55.630Z,8.31
2019-04-11T01:29:54.120Z,8.25
2019-04-11T01:30:54.098Z,8.19
2019-04-11T01:31:54.216Z,8.06
2019-04-11T01:32:55.110Z,8.06
2019-04-11T01:33:54.098Z,8.06
2019-04-11T01:34:55.239Z,8
2019-04-11T01:35:55.308Z,8.06
2019-04-11T01:36:55.590Z,8.13
2019-04-11T01:37:54.061Z,8.13
2019-04-11T01:38:55.046Z,8.13
2019-04-11T01:39:54.156Z,8.13
2019-04-11T01:40:54.261Z,8.13
2019-04-11T01:41:55.482Z,8.13
2019-04-11T01:42:54.099Z,8.06
2019-04-11T01:44:09.058Z,8.06
2019-04-11T01:44:55.081Z,8
2019-04-11T01:45:54.084Z,8.06
2019-04-11T01:46:54.385Z,8
2019-04-11T01:47:55.466Z,7.94
2019-04-11T01:48:54.090Z,7.75
2019-04-11T01:49:54.813Z,7.75
2019-04-11T01:50:54.066Z,7.75
2019-04-11T01:51:54.173Z,7.75
2019-04-11T01:52:55.247Z,7.75
2019-04-11T01:53:55.519Z,7.69
2019-04-11T01:54:54.438Z,7.62
2019-04-11T01:55:54.209Z,7.62
2019-04-11T01:56:54.058Z,7.62
2019-04-11T01:57:54.309Z,7.62
2019-04-11T01:58:55.500Z,7.62
2019-04-11T01:59:54.063Z,7.62
2019-04-11T02:00:54.993Z,7.56
2019-04-11T02:01:55.117Z,7.62
2019-04-11T02:02:55.141Z,7.5
2019-04-11T02:03:55.517Z,7.5
2019-04-11T02:04:54.625Z,7.44
2019-04-11T02:05:54.087Z,7.37
2019-04-11T02:06:54.475Z,7.37
2019-04-11T02:07:55.502Z,7.31
2019-04-11T02:08:54.063Z,7.31
2019-04-11T02:09:55.035Z,7.25
2019-04-11T02:10:54.273Z,7.25
2019-04-11T02:11:54.238Z,7.25
2019-04-11T02:12:55.390Z,7.25
2019-04-11T02:14:23.858Z,7.25
2019-04-11T02:14:54.028Z,7.25
2019-04-11T02:16:01.577Z,7.19
2019-04-11T02:16:54.063Z,7.19
2019-04-11T02:17:55.305Z,7.12
2019-04-11T02:18:54.283Z,7.06
2019-04-11T02:19:54.477Z,7.06
2019-04-11T02:20:55.946Z,7
2019-04-11T02:21:54.032Z,7
2019-04-11T02:22:55.258Z,6.81
2019-04-11T02:23:55.437Z,6.75
2019-04-11T02:24:54.549Z,6.69
2019-04-11T02:25:54.776Z,6.75
2019-04-11T02:26:54.852Z,6.75
2019-04-11T02:27:54.506Z,6.75
2019-04-11T02:28:55.475Z,6.69
2019-04-11T02:29:55.493Z,6.75
2019-04-11T02:30:56.991Z,6.75
2019-04-11T02:32:07.686Z,6.75
2019-04-11T02:32:54.077Z,6.75
2019-04-11T02:34:04.459Z,6.75
2019-04-11T02:35:08.806Z,6.75
2019-04-11T02:35:57.454Z,6.75
2019-04-11T02:37:02.634Z,6.75
2019-04-11T02:38:00.472Z,6.75
2019-04-11T02:39:20.849Z,6.75
2019-04-11T02:40:00.268Z,6.69
2019-04-11T02:40:58.428Z,6.62
2019-04-11T02:42:04.225Z,6.62
2019-04-11T02:42:55.206Z,6.5
2019-04-11T02:44:04.045Z,6.44
2019-04-11T02:47:57.371Z,6.5
2019-04-11T02:49:03.419Z,6.44
2019-04-11T02:49:59.302Z,6.5
2019-04-11T02:51:06.968Z,6.44
2019-04-11T02:51:56.372Z,6.44
2019-04-11T02:52:54.270Z,6.44
2019-04-11T02:53:59.202Z,6.37
2019-04-11T02:54:54.826Z,6.44
2019-04-11T02:56:03.002Z,6.37
2019-04-11T02:56:55.294Z,6.25
2019-04-11T02:58:05.547Z,6.25
2019-04-11T02:58:56.867Z,6.12
2019-04-11T02:59:56.816Z,6.19
2019-04-11T03:01:12.866Z,6.19
2019-04-11T03:01:53.996Z,6.25
2019-04-11T03:02:54.410Z,6.19
2019-04-11T03:04:03.906Z,6.06
2019-04-11T03:04:56.886Z,6.06
2019-04-11T03:06:04.663Z,6.12
2019-04-11T03:06:57.622Z,6.12
2019-04-11T03:08:02.509Z,6.19
2019-04-11T03:08:59.538Z,6.19
2019-04-11T03:09:57.148Z,6.19
2019-04-11T03:11:01.910Z,6.06
2019-04-11T03:11:59.629Z,6.12
2019-04-11T03:13:00.561Z,6.19
2019-04-11T03:13:55.321Z,6.19
2019-04-11T03:18:35.460Z,6.19
2019-04-11T03:21:26.300Z,6.19
2019-04-11T03:22:03.530Z,6.19
2019-04-11T03:23:20.578Z,6.19
2019-04-11T03:23:54.182Z,6.19
2019-04-11T03:25:00.690Z,6.19
2019-04-11T03:25:57.191Z,6.12
2019-04-11T03:27:12.001Z,6.19
2019-04-11T03:27:54.549Z,6.19
2019-04-11T03:29:01.545Z,6.19
2019-04-11T03:30:10.269Z,6.19
2019-04-11T03:50:30.352Z,6
2019-04-11T03:51:04.873Z,6
2019-04-11T03:51:56.004Z,5.94
2019-04-11T03:53:11.592Z,6
2019-04-11T03:53:53.966Z,6
2019-04-11T03:55:08.779Z,5.94
2019-04-11T03:55:56.531Z,5.87
2019-04-11T03:56:54.237Z,5.87
2019-04-11T03:58:01.527Z,5.87
2019-04-11T03:58:59.122Z,5.94
2019-04-11T04:00:06.521Z,5.87
2019-04-11T04:01:13.814Z,5.81
2019-04-11T04:02:00.265Z,5.81
2019-04-11T04:03:06.451Z,5.75
2019-04-11T04:03:56.010Z,5.75
2019-04-11T04:04:55.033Z,5.75
2019-04-11T04:06:02.381Z,5.75
2019-04-11T04:06:58.665Z,5.69
2019-04-11T04:08:06.361Z,5.62
2019-04-11T04:08:56.062Z,5.56
2019-04-11T04:09:54.847Z,5.56
2019-04-11T04:10:53.954Z,5.56
2019-04-11T04:11:59.799Z,5.56
2019-04-11T04:13:11.821Z,5.62
2019-04-11T04:13:56.648Z,5.62
2019-04-11T04:14:54.703Z,5.62
2019-04-11T04:17:11.405Z,5.44
2019-04-11T04:18:00.274Z,5.44
2019-04-11T04:19:05.420Z,5.44
2019-04-11T04:19:56.992Z,5.37
2019-04-11T04:20:54.002Z,5.37
2019-04-11T04:21:59.756Z,5.31
2019-04-11T04:22:57.423Z,5.37
2019-04-11T04:24:05.925Z,5.31
2019-04-11T04:24:56.513Z,5.31
2019-04-11T04:25:55.460Z,5.37
2019-04-11T04:27:06.626Z,5.31
2019-04-11T04:27:59.741Z,5.37
2019-04-11T04:29:00.063Z,5.37
2019-04-11T04:30:06.462Z,5.31
2019-04-11T04:30:54.703Z,5.31
2019-04-11T04:31:58.983Z,5.31
2019-04-11T04:32:57.520Z,5.25
2019-04-11T04:33:59.797Z,5.25
2019-04-11T04:34:58.363Z,5.25
2019-04-11T04:35:58.010Z,5.25
2019-04-11T04:36:58.034Z,5.31
2019-04-11T04:37:56.429Z,5.31
2019-04-11T04:38:56.909Z,5.31
2019-04-11T04:43:11.870Z,5.37
2019-04-11T04:44:02.003Z,5.37
2019-04-11T04:44:58.815Z,5.37
2019-04-11T04:48:24.264Z,5.31
2019-04-11T04:48:56.494Z,5.31
2019-04-11T04:49:54.696Z,5.31
2019-04-11T04:51:16.287Z,5.25
2019-04-11T04:51:56.450Z,5.19
2019-04-11T04:53:03.013Z,5.12
2019-04-11T04:54:00.711Z,5
2019-04-11T04:55:06.361Z,4.94
2019-04-11T04:55:54.680Z,4.94
2019-04-11T04:56:55.428Z,4.94
2019-04-11T04:58:02.308Z,4.94
2019-04-11T04:58:59.025Z,4.94
2019-04-11T05:00:05.408Z,4.94
2019-04-11T05:00:58.910Z,4.87
2019-04-11T05:01:56.163Z,4.94
2019-04-11T05:03:02.747Z,4.87
2019-04-11T05:03:59.059Z,4.87
2019-04-11T05:04:59.282Z,4.87
2019-04-11T05:05:55.708Z,4.75
2019-04-11T05:06:55.454Z,4.81
2019-04-11T05:08:00.607Z,4.75
2019-04-11T05:08:53.844Z,4.81
2019-04-11T05:09:58.814Z,4.81
2019-04-11T05:10:58.130Z,4.81
2019-04-11T05:11:55.460Z,4.81
2019-04-11T05:12:57.346Z,4.75
2019-04-11T05:13:58.897Z,4.75
2019-04-11T05:14:56.353Z,4.81
2019-04-11T05:16:18.283Z,4.81
2019-04-11T05:16:54.894Z,4.81
2019-04-11T05:17:53.764Z,4.75
2019-04-11T05:18:54.984Z,4.81
2019-04-11T05:19:54.662Z,4.87
2019-04-11T05:20:54.998Z,4.87
2019-04-11T05:21:54.300Z,4.87
2019-04-11T05:22:54.113Z,4.81
2019-04-11T05:23:56.937Z,4.81
2019-04-11T05:25:06.602Z,4.81
2019-04-11T05:25:55.192Z,4.87
2019-04-11T05:26:53.797Z,4.87
2019-04-11T05:27:54.370Z,4.87
2019-04-11T05:28:55.292Z,4.94
2019-04-11T05:29:53.785Z,5
2019-04-11T05:30:53.843Z,5
2019-04-11T05:31:54.959Z,5
2019-04-11T05:32:53.767Z,5.06
2019-04-11T05:33:54.149Z,5.06
2019-04-11T05:34:53.758Z,5.06
2019-04-11T05:35:54.484Z,5.06
2019-04-11T05:36:54.037Z,5.06
2019-04-11T05:37:53.807Z,5.06
2019-04-11T05:38:54.973Z,5
2019-04-11T05:39:53.754Z,5
2019-04-11T05:40:54.902Z,5
2019-04-11T05:41:54.707Z,5
2019-04-11T05:42:56.045Z,5
2019-04-11T05:43:54.018Z,5
2019-04-11T05:44:55.025Z,5
2019-04-11T05:45:58.522Z,5.06
2019-04-11T05:47:07.039Z,5.06
2019-04-11T05:47:58.770Z,5.06
2019-04-11T05:49:05.493Z,5.06
2019-04-11T05:49:54.966Z,5.12
2019-04-11T05:50:54.380Z,5.12
2019-04-11T05:52:04.096Z,5.12
2019-04-11T05:52:54.929Z,5.19
2019-04-11T05:53:56.065Z,5.19
2019-04-11T05:54:54.609Z,5.25
2019-04-11T05:55:53.742Z,5.25
2019-04-11T05:57:02.867Z,5.31
2019-04-11T05:57:54.739Z,5.31
2019-04-11T05:58:53.749Z,5.37
2019-04-11T05:59:59.368Z,5.37
2019-04-11T06:00:59.809Z,5.37
2019-04-11T06:01:55.197Z,5.44
2019-04-11T06:02:53.800Z,5.5
2019-04-11T06:03:53.948Z,5.5
2019-04-11T06:04:58.090Z,5.56
2019-04-11T06:06:04.936Z,5.56
2019-04-11T06:07:01.750Z,5.56
2019-04-11T06:07:58.279Z,5.62
2019-04-11T06:09:02.401Z,5.62
2019-04-11T06:09:54.819Z,5.69
2019-04-11T06:10:55.018Z,5.69
2019-04-11T06:11:58.339Z,5.75
2019-04-11T06:12:54.944Z,5.75
2019-04-11T06:13:53.726Z,5.75
2019-04-11T06:14:53.753Z,5.81
2019-04-11T06:15:53.819Z,5.81
2019-04-11T06:16:59.352Z,5.87
2019-04-11T06:17:56.843Z,5.87
2019-04-11T06:18:54.546Z,5.87
2019-04-11T06:19:53.859Z,5.87
2019-04-11T06:20:53.928Z,5.87
2019-04-11T06:21:53.757Z,5.94
2019-04-11T06:22:54.403Z,5.94
2019-04-11T06:23:54.055Z,5.94
2019-04-11T06:24:54.871Z,6
2019-04-11T06:25:53.755Z,6
2019-04-11T06:26:55.049Z,6.06
2019-04-11T06:27:54.221Z,6.06
2019-04-11T06:28:57.161Z,6.06
2019-04-11T06:29:55.062Z,6.12
2019-04-11T06:30:55.066Z,6.12
2019-04-11T06:31:54.748Z,6.19
2019-04-11T06:32:54.646Z,6.19
2019-04-11T06:33:53.691Z,6.19
2019-04-11T06:34:53.668Z,6.19
2019-04-11T06:35:54.872Z,6.25
2019-04-11T06:36:55.466Z,6.25
2019-04-11T06:37:56.388Z,6.25
2019-04-11T06:38:54.975Z,6.31
2019-04-11T06:40:02.690Z,6.37
2019-04-11T06:40:54.795Z,6.31
2019-04-11T06:41:55.099Z,6.31
2019-04-11T06:42:54.076Z,6.37
2019-04-11T06:43:53.730Z,6.31
2019-04-11T06:44:54.935Z,6.37
2019-04-11T06:45:54.617Z,6.37
2019-04-11T06:47:05.517Z,6.44
2019-04-11T06:47:53.841Z,6.44
2019-04-11T06:48:54.237Z,6.44
2019-04-11T06:49:53.648Z,6.5
2019-04-11T06:50:53.631Z,6.56
2019-04-11T06:51:55.294Z,6.56
2019-04-11T06:52:53.944Z,6.62
2019-04-11T06:53:54.909Z,6.69
2019-04-11T06:54:54.197Z,6.69
2019-04-11T06:55:55.307Z,6.69
2019-04-11T06:56:54.079Z,6.69
2019-04-11T06:57:54.502Z,6.62
2019-04-11T06:58:57.037Z,6.69
2019-04-11T06:59:53.664Z,6.75
2019-04-11T07:00:53.813Z,6.75
2019-04-11T07:01:55.347Z,6.75
2019-04-11T07:02:53.607Z,6.81
2019-04-11T07:03:53.611Z,6.81
2019-04-11T07:04:54.159Z,6.87
2019-04-11T07:05:53.699Z,6.94
2019-04-11T07:06:53.986Z,6.87
2019-04-11T07:07:54.222Z,6.87
2019-04-11T07:08:54.875Z,6.94
2019-04-11T07:09:53.802Z,6.94
2019-04-11T07:10:55.503Z,6.94
2019-04-11T07:11:53.891Z,7.06
2019-04-11T07:13:00.863Z,7.06
2019-04-11T07:13:53.627Z,7.06
2019-04-11T07:14:53.609Z,7.06
2019-04-11T07:15:55.030Z,7.06
2019-04-11T07:17:13.841Z,7.12
2019-04-11T07:17:54.910Z,7.06
2019-04-11T07:18:54.939Z,7.06
2019-04-11T07:19:53.905Z,7.06
2019-04-11T07:20:54.541Z,7.06
2019-04-11T07:21:53.613Z,7.12
2019-04-11T07:22:53.600Z,7.19
2019-04-11T07:23:53.674Z,7.19
2019-04-11T07:24:53.602Z,7.19
2019-04-11T07:25:54.163Z,7.19
2019-04-11T07:26:54.581Z,7.19
2019-04-11T07:27:53.954Z,7.19
2019-04-11T07:28:54.480Z,7.19
2019-04-11T07:29:54.746Z,7.25
2019-04-11T07:30:54.087Z,7.25
2019-04-11T07:31:55.018Z,7.31
2019-04-11T07:32:54.808Z,7.37
2019-04-11T07:33:54.250Z,7.31
2019-04-11T07:34:54.795Z,7.37
2019-04-11T07:35:53.654Z,7.37
2019-04-11T07:36:53.810Z,7.44
2019-04-11T07:37:53.655Z,7.5
2019-04-11T07:38:54.671Z,7.5
2019-04-11T07:39:54.087Z,7.56
2019-04-11T07:40:56.361Z,7.62
2019-04-11T07:41:53.643Z,7.69
2019-04-11T07:43:17.510Z,7.75
2019-04-11T07:43:54.498Z,7.81
2019-04-11T07:44:53.568Z,7.81
2019-04-11T07:45:53.898Z,7.87
2019-04-11T07:46:54.060Z,7.81
2019-04-11T07:47:55.037Z,7.69
2019-04-11T07:48:55.042Z,7.62
2019-04-11T07:49:58.401Z,7.56
2019-04-11T07:50:55.703Z,7.56
2019-04-11T07:51:54.463Z,7.56
2019-04-11T07:52:53.986Z,7.62
2019-04-11T07:53:54.858Z,7.69
2019-04-11T07:54:53.902Z,7.69
2019-04-11T07:55:53.628Z,7.69
2019-04-11T07:56:53.936Z,7.75
2019-04-11T07:57:54.921Z,7.75
2019-04-11T07:58:56.547Z,7.75
2019-04-11T07:59:53.638Z,7.81
2019-04-11T08:00:56.218Z,7.81
2019-04-11T08:01:53.580Z,7.81
2019-04-11T08:02:53.528Z,7.75
2019-04-11T08:03:53.817Z,7.75
2019-04-11T08:04:53.842Z,7.87
2019-04-11T08:05:54.785Z,7.94
2019-04-11T08:06:54.542Z,8
2019-04-11T08:07:53.613Z,8
2019-04-11T08:08:56.194Z,8.06
2019-04-11T08:09:53.540Z,8.06
2019-04-11T08:10:54.881Z,8.13
2019-04-11T08:11:53.552Z,8.06
2019-04-11T08:12:54.449Z,8.06
2019-04-11T08:13:56.909Z,8.06
2019-04-11T08:14:53.500Z,8.13
2019-04-11T08:15:53.963Z,8.13
2019-04-11T08:16:53.524Z,8.13
2019-04-11T08:17:54.605Z,8.25
2019-04-11T08:18:53.494Z,8.25
2019-04-11T08:19:53.554Z,8.31
2019-04-11T08:20:53.544Z,8.31
2019-04-11T08:21:54.763Z,8.31
2019-04-11T08:22:53.499Z,8.38
2019-04-11T08:23:54.449Z,8.31
2019-04-11T08:24:53.688Z,8.31
2019-04-11T08:25:53.906Z,8.38
2019-04-11T08:26:53.752Z,8.44
2019-04-11T08:28:14.120Z,8.44
2019-04-11T08:29:16.187Z,8.44
2019-04-11T08:29:54.921Z,8.56
2019-04-11T08:30:53.548Z,8.56
2019-04-11T08:31:57.838Z,8.56
2019-04-11T08:32:54.151Z,8.63
2019-04-11T08:33:53.474Z,8.63
2019-04-11T08:34:53.707Z,8.69
2019-04-11T08:35:59.889Z,8.75
2019-04-11T08:36:54.957Z,8.81
2019-04-11T08:37:54.272Z,8.88
2019-04-11T08:38:53.530Z,8.81
2019-04-11T08:39:53.651Z,8.81
2019-04-11T08:40:53.577Z,8.81
2019-04-11T08:41:53.529Z,8.88
2019-04-11T08:42:53.505Z,8.88
2019-04-11T08:43:55.447Z,8.94
2019-04-11T08:44:54.487Z,8.88
2019-04-11T08:45:54.438Z,8.94
2019-04-11T08:46:54.189Z,8.94
2019-04-11T08:48:00.434Z,9
2019-04-11T08:48:54.675Z,9.06
2019-04-11T08:49:58.562Z,9
2019-04-11T08:50:54.898Z,9.06
2019-04-11T08:51:54.006Z,9.06
2019-04-11T08:52:54.448Z,9.19
2019-04-11T08:53:53.443Z,9.19
2019-04-11T08:54:53.733Z,9.19
2019-04-11T08:56:05.662Z,9.25
2019-04-11T08:56:53.848Z,9.25
2019-04-11T08:57:54.167Z,9.31
2019-04-11T08:58:53.460Z,9.38
2019-04-11T08:59:53.722Z,9.31
2019-04-11T09:01:00.921Z,9.44
2019-04-11T09:01:54.220Z,9.44
2019-04-11T09:02:53.699Z,9.5
2019-04-11T09:04:16.781Z,9.56
2019-04-11T09:05:20.853Z,9.63
2019-04-11T09:05:53.540Z,9.56
2019-04-11T09:06:54.816Z,9.63
2019-04-11T09:07:56.280Z,9.69
2019-04-11T09:08:54.644Z,9.69
2019-04-11T09:09:55.841Z,9.69
2019-04-11T09:10:56.217Z,9.75
2019-04-11T09:12:12.761Z,9.75
2019-04-11T09:12:53.519Z,9.81
2019-04-11T09:13:53.708Z,9.88
2019-04-11T09:14:55.210Z,9.88
2019-04-11T09:15:53.478Z,9.94
2019-04-11T09:16:54.363Z,9.94
2019-04-11T09:18:15.419Z,10
2019-04-11T09:18:54.620Z,10
2019-04-11T09:19:53.440Z,10.06
2019-04-11T09:20:54.221Z,10.06
2019-04-11T09:21:53.451Z,10.13
2019-04-11T09:22:53.618Z,10.13
2019-04-11T09:23:54.877Z,10.19
2019-04-11T09:24:53.457Z,10.19
2019-04-11T09:25:56.784Z,10.25
2019-04-11T09:26:58.556Z,10.25
2019-04-11T09:27:55.922Z,10.31
2019-04-11T09:28:53.862Z,10.31
2019-04-11T09:29:54.679Z,10.38
2019-04-11T09:30:53.398Z,10.44
2019-04-11T09:31:54.087Z,10.38
2019-04-11T09:32:53.505Z,10.44
2019-04-11T09:33:55.765Z,10.56
2019-04-11T09:34:54.525Z,10.56
2019-04-11T09:35:53.505Z,10.38
2019-04-11T09:36:53.624Z,10.38
2019-04-11T09:37:54.041Z,10.44
2019-04-11T09:38:53.464Z,10.5
2019-04-11T09:39:53.415Z,10.56
2019-04-11T09:40:54.451Z,10.5
2019-04-11T09:41:54.700Z,10.5
2019-04-11T09:42:53.776Z,10.44
2019-04-11T09:43:53.439Z,10.44
2019-04-11T09:44:53.412Z,10.44
2019-04-11T09:45:54.529Z,10.5
2019-04-11T09:46:57.174Z,10.5
2019-04-11T09:48:23.788Z,10.5
2019-04-11T09:48:54.073Z,10.44
2019-04-11T09:49:54.039Z,10.5
2019-04-11T09:50:53.426Z,10.5
2019-04-11T09:51:54.473Z,10.56
2019-04-11T09:52:56.126Z,10.69
2019-04-11T09:53:53.557Z,10.69
2019-04-11T09:54:54.832Z,10.75
2019-04-11T09:55:53.926Z,10.81
2019-04-11T09:56:54.218Z,10.81
2019-04-11T09:57:54.877Z,10.94
2019-04-11T09:58:53.395Z,10.94
2019-04-11T09:59:54.566Z,11
2019-04-11T10:00:53.406Z,11
2019-04-11T10:01:54.288Z,11
2019-04-11T10:02:53.420Z,11.06
2019-04-11T10:03:53.513Z,11.12
2019-04-11T10:04:54.644Z,11
2019-04-11T10:05:54.882Z,10.88
2019-04-11T10:06:53.524Z,10.88
2019-04-11T10:07:54.725Z,10.69
2019-04-11T10:08:53.495Z,10.63
2019-04-11T10:09:57.038Z,10.63
2019-04-11T10:10:53.501Z,10.69
2019-04-11T10:11:56.889Z,10.75
2019-04-11T10:12:54.473Z,10.69
2019-04-11T10:13:53.547Z,10.75
2019-04-11T10:14:53.836Z,10.75
2019-04-11T10:15:53.875Z,10.75
2019-04-11T10:16:53.408Z,10.75
2019-04-11T10:17:54.970Z,10.81
2019-04-11T10:18:53.878Z,10.81
2019-04-11T10:19:54.556Z,10.94
2019-04-11T10:20:53.358Z,11
2019-04-11T10:21:54.627Z,11
2019-04-11T10:22:54.735Z,10.94
2019-04-11T10:23:53.657Z,11
2019-04-11T10:24:54.944Z,11
2019-04-11T10:25:54.012Z,10.81
2019-04-11T10:26:53.322Z,10.81
2019-04-11T10:27:53.461Z,10.81
2019-04-11T10:28:53.802Z,10.81
2019-04-11T10:29:54.780Z,10.81
2019-04-11T10:30:53.903Z,10.75
2019-04-11T10:31:53.423Z,10.81
2019-04-11T10:32:53.443Z,10.81
2019-04-11T10:33:53.410Z,10.81
2019-04-11T10:34:54.344Z,10.94
2019-04-11T10:35:54.620Z,11
2019-04-11T10:36:53.902Z,11.06
2019-04-11T10:37:53.398Z,11.12
2019-04-11T10:38:55.343Z,11.12
2019-04-11T10:39:53.931Z,11.12
2019-04-11T10:40:54.762Z,11.12
2019-04-11T10:41:56.066Z,11.12
2019-04-11T10:42:54.195Z,11.19
2019-04-11T10:43:54.051Z,11.12
2019-04-11T10:44:54.380Z,11.06
2019-04-11T10:45:53.371Z,11.06
2019-04-11T10:46:53.592Z,10.94
2019-04-11T10:47:56.148Z,10.94
2019-04-11T10:48:53.372Z,10.81
2019-04-11T10:49:54.764Z,10.69
2019-04-11T10:50:53.389Z,10.69
2019-04-11T10:51:54.214Z,10.69
2019-04-11T10:52:53.348Z,10.75
2019-04-11T10:53:53.621Z,10.81
2019-04-11T10:54:55.470Z,10.81
2019-04-11T10:55:54.015Z,10.94
2019-04-11T10:56:53.943Z,11.06
2019-04-11T10:57:54.336Z,11.12
2019-04-11T10:58:55.654Z,11.19
2019-04-11T10:59:54.807Z,11.31
2019-04-11T11:00:53.867Z,11.31
2019-04-11T11:01:53.342Z,11.38
2019-04-11T11:02:53.889Z,11.38
2019-04-11T11:03:53.775Z,11.44
2019-04-11T11:04:53.838Z,11.31
2019-04-11T11:05:53.554Z,11.31
2019-04-11T11:06:54.141Z,11.31
2019-04-11T11:07:53.318Z,11.38
2019-04-11T11:08:53.599Z,11.5
2019-04-11T11:09:54.762Z,11.56
2019-04-11T11:10:53.299Z,11.63
2019-04-11T11:11:54.517Z,11.63
2019-04-11T11:12:54.018Z,11.63
2019-04-11T11:13:54.490Z,11.75
2019-04-11T11:14:53.966Z,11.81
2019-04-11T11:15:53.386Z,11.75
2019-04-11T11:16:53.315Z,11.75
2019-04-11T11:21:07.662Z,11.63
2019-04-11T11:21:53.514Z,11.63
2019-04-11T11:22:54.058Z,11.69
2019-04-11T11:23:54.674Z,11.75
2019-04-11T11:24:54.714Z,11.88
2019-04-11T11:25:53.556Z,11.88
2019-04-11T11:27:05.842Z,11.94
2019-04-11T11:27:53.302Z,12.06
2019-04-11T11:28:53.279Z,12.06
2019-04-11T11:29:54.367Z,11.94
2019-04-11T11:30:54.339Z,12.06
2019-04-11T11:31:54.896Z,11.94
2019-04-11T11:32:54.095Z,11.88
2019-04-11T11:33:54.612Z,11.81
2019-04-11T11:34:55.244Z,11.88
2019-04-11T11:36:07.553Z,12
2019-04-11T11:36:58.305Z,12.13
2019-04-11T11:37:53.685Z,12.25
2019-04-11T11:38:54.556Z,12.31
2019-04-11T11:39:55.583Z,12.44
2019-04-11T11:40:54.432Z,12.56
2019-04-11T11:41:54.684Z,12.56
2019-04-11T11:42:53.268Z,12.56
2019-04-11T11:43:53.254Z,12.5
2019-04-11T11:44:53.402Z,12.31
2019-04-11T11:45:59.123Z,12.25
2019-04-11T11:46:54.351Z,12.25
2019-04-11T11:47:53.413Z,12.31
2019-04-11T11:48:54.645Z,12.44
2019-04-11T11:50:19.694Z,12.5
2019-04-11T11:50:53.310Z,12.56
2019-04-11T11:52:00.094Z,12.63
2019-04-11T11:52:53.415Z,12.63
2019-04-11T11:53:53.417Z,12.63
2019-04-11T11:54:53.839Z,12.75
2019-04-11T11:55:53.837Z,12.81
2019-04-11T11:56:54.248Z,12.94
2019-04-11T11:57:53.340Z,13
2019-04-11T11:59:01.270Z,13
2019-04-11T11:59:53.509Z,12.94
2019-04-11T12:01:09.615Z,12.81
2019-04-11T12:01:54.543Z,12.69
2019-04-11T12:02:57.080Z,12.63
2019-04-11T12:04:05.198Z,12.63
2019-04-11T12:04:54.247Z,12.63
2019-04-11T12:05:54.547Z,12.69
2019-04-11T12:07:08.726Z,12.75
2019-04-11T12:07:56.495Z,12.88
2019-04-11T12:08:54.298Z,12.94
2019-04-11T12:09:53.240Z,12.88
2019-04-11T12:10:53.625Z,12.88
2019-04-11T12:11:57.136Z,12.88
2019-04-11T12:12:54.326Z,12.63
2019-04-11T12:13:53.923Z,12.69
2019-04-11T12:14:54.018Z,12.69
2019-04-11T12:15:53.872Z,12.75
2019-04-11T12:17:08.577Z,12.75
2019-04-11T12:17:54.256Z,12.63
2019-04-11T12:18:55.310Z,12.63
2019-04-11T12:20:16.945Z,12.69
2019-04-11T12:20:59.626Z,12.63
2019-04-11T12:21:54.015Z,12.63
2019-04-11T12:22:55.314Z,12.63
2019-04-11T12:24:09.865Z,12.75
2019-04-11T12:24:53.587Z,12.94
2019-04-11T12:25:54.126Z,13
2019-04-11T12:26:54.129Z,13.06
2019-04-11T12:27:54.374Z,13.19
2019-04-11T12:28:54.409Z,13.25
2019-04-11T12:29:53.687Z,13.38
2019-04-11T12:31:05.598Z,13.44
2019-04-11T12:31:53.295Z,13.56
2019-04-11T12:32:53.174Z,13.44
2019-04-11T12:33:54.224Z,13.38
2019-04-11T12:34:53.428Z,13.5
2019-04-11T12:35:53.184Z,13.44
2019-04-11T12:36:57.212Z,13.56
2019-04-11T12:37:56.142Z,13.69
2019-04-11T12:38:55.681Z,13.75
2019-04-11T12:39:53.459Z,13.88
2019-04-11T12:40:53.270Z,14
2019-04-11T12:41:53.185Z,14
2019-04-11T12:42:53.193Z,14.06
2019-04-11T12:43:53.209Z,14.19
2019-04-11T12:44:53.158Z,14.06
2019-04-11T12:45:53.273Z,14
2019-04-11T12:46:53.576Z,14
2019-04-11T12:47:53.476Z,13.81
2019-04-11T12:48:53.238Z,13.81
2019-04-11T12:49:53.729Z,13.75
2019-04-11T12:50:53.193Z,13.75
2019-04-11T12:51:53.318Z,13.75
2019-04-11T12:52:53.216Z,13.62
2019-04-11T12:53:53.165Z,13.75
2019-04-11T12:54:53.238Z,13.81
2019-04-11T12:55:53.173Z,13.88
2019-04-11T12:56:53.259Z,14
2019-04-11T12:57:53.247Z,14.13
2019-04-11T12:58:53.166Z,14.13
2019-04-11T12:59:53.192Z,14.19
2019-04-11T13:00:53.150Z,14.31
2019-04-11T13:01:53.287Z,14.38
2019-04-11T13:02:53.245Z,14.19
2019-04-11T13:03:53.267Z,14.38
2019-04-11T13:04:53.208Z,14.44
2019-04-11T13:05:53.139Z,14.56
2019-04-11T13:06:54.176Z,14.63
2019-04-11T13:07:53.275Z,14.75
2019-04-11T13:08:53.478Z,14.81
2019-04-11T13:09:53.219Z,14.87
2019-04-11T13:10:53.184Z,14.87
2019-04-11T13:11:53.244Z,14.87
2019-04-11T13:12:53.131Z,14.87
2019-04-11T13:13:54.343Z,14.87
2019-04-11T13:14:53.170Z,14.94
2019-04-11T13:15:54.923Z,14.94
2019-04-11T13:16:53.132Z,14.87
2019-04-11T13:17:53.214Z,14.31
2019-04-11T13:18:53.166Z,14.44
2019-04-11T13:20:05.456Z,14.63
2019-04-11T13:20:53.169Z,14.69
2019-04-11T13:21:53.302Z,14.75
2019-04-11T13:22:53.230Z,14.56
2019-04-11T13:23:53.234Z,14.56
2019-04-11T13:24:53.260Z,14.44
2019-04-11T13:25:53.111Z,14.44
2019-04-11T13:26:53.202Z,14.44
2019-04-11T13:27:53.131Z,14.5
2019-04-11T13:28:53.182Z,14.56
2019-04-11T13:29:53.119Z,14.56
2019-04-11T13:30:53.182Z,14.56
2019-04-11T13:31:53.134Z,14.69
2019-04-11T13:32:53.177Z,14.75
2019-04-11T13:33:53.199Z,14.75
2019-04-11T13:34:53.206Z,14.81
2019-04-11T13:35:53.092Z,14.94
2019-04-11T13:36:53.149Z,15.06
2019-04-11T13:37:53.167Z,15.13
2019-04-11T13:38:53.262Z,15.25
2019-04-11T13:39:53.170Z,15.25
2019-04-11T13:40:53.643Z,15.06
2019-04-11T13:41:53.107Z,15.06
2019-04-11T13:42:53.157Z,14.94
2019-04-11T13:43:53.094Z,14.69
2019-04-11T13:44:53.150Z,14.69
2019-04-11T13:45:54.390Z,14.63
2019-04-11T13:46:53.112Z,14.81
2019-04-11T13:47:53.667Z,14.94
2019-04-11T13:48:53.158Z,14.63
2019-04-11T13:49:53.126Z,14.25
2019-04-11T13:50:53.097Z,14.5